createdAt,value
2019-04-23T00:26:36.592Z,99693.48
2019-04-23T00:46:48.058Z,99704.36
2019-04-23T00:57:00.747Z,99697.17
2019-04-23T01:07:04.555Z,99689.92
2019-04-23T01:17:17.425Z,99690.35
2019-04-23T01:58:07.061Z,99655.88
2019-04-23T02:08:06.559Z,99645.41
2019-04-23T02:38:31.840Z,99633.73
2019-04-23T02:48:38.174Z,99612.52
2019-04-23T02:58:43.775Z,99613.34
2019-04-23T03:08:46.641Z,99616.92
2019-04-23T03:19:09.690Z,99614.82
2019-04-23T03:39:37.407Z,99611.45
2019-04-23T04:30:02.399Z,99614.42
2019-04-23T04:40:12.341Z,99614.36
2019-04-23T04:50:04.834Z,99588.95
2019-04-23T05:00:34.720Z,99586.94
2019-04-23T05:10:38.390Z,99600.44
2019-04-23T05:30:38.177Z,99599.02
2019-04-23T05:40:45.581Z,99586.77
2019-04-23T06:01:11.443Z,99585.07
2019-04-23T06:11:08.658Z,99596.26
2019-04-23T06:21:10.187Z,99598.61
2019-04-23T06:31:41.042Z,99579.20
2019-04-23T06:41:29.051Z,99577.42
2019-04-23T06:51:42.070Z,99562.27
2019-04-23T07:01:51.577Z,99568.48
2019-04-23T07:11:44.320Z,99544.66
2019-04-23T07:21:59.279Z,99562.78
2019-04-23T07:32:00.832Z,99563.09
2019-04-23T07:42:24.697Z,99582.66
2019-04-23T07:52:33.681Z,99569.30
2019-04-23T08:02:35.960Z,99574.73
2019-04-23T08:12:42.498Z,99578.28
2019-04-23T08:22:49.543Z,99591.73
2019-04-23T08:32:58.737Z,99565.83
2019-04-23T08:43:08.535Z,99565.19
2019-04-23T08:53:23.422Z,99575.17
2019-04-23T09:23:42.084Z,99579.65
2019-04-23T09:34:00.558Z,99575.48
2019-04-23T09:44:30.899Z,99575.31
2019-04-23T09:54:17.994Z,99567.39
2019-04-23T10:04:07.573Z,99573.84
2019-04-23T10:14:03.162Z,99549.05
2019-04-23T10:24:09.585Z,99535.10
2019-04-23T10:34:14.865Z,99555.16
2019-04-23T10:44:21.623Z,99537.08
2019-04-23T10:54:52.337Z,99534.13
2019-04-23T11:55:44.880Z,99480.38
2019-04-23T12:06:15.428Z,99501.57
2019-04-23T12:16:20.309Z,99505.63
2019-04-23T12:26:33.823Z,99468.41
2019-04-23T12:36:36.957Z,99486.98
2019-04-23T12:56:56.825Z,99444.81
2019-04-23T13:06:50.963Z,99451.33
2019-04-23T13:17:12.615Z,99430.53
2019-04-23T13:27:26.111Z,99405.18
2019-04-23T13:37:29.812Z,99422.57
2019-04-23T13:47:38.522Z,99417.52
2019-04-23T13:57:57.703Z,99412.64
2019-04-23T14:18:02.906Z,99396.48
2019-04-23T14:27:56.610Z,99410.74
2019-04-23T14:38:19.568Z,99395.81
2019-04-23T14:48:10.461Z,99410.23
2019-04-23T14:58:40.084Z,99396.09
2019-04-23T15:08:24.277Z,99382.34
2019-04-23T15:18:45.231Z,99387.22
2019-04-23T15:28:17.776Z,99380.59
2019-04-23T15:39:11.703Z,99396.05
2019-04-23T15:59:19.125Z,99391.69
2019-04-23T16:09:06.241Z,99387.73
2019-04-23T16:19:24.097Z,99378.43
2019-04-23T16:39:21.565Z,99377.72
2019-04-23T17:00:02.506Z,99371.80
2019-04-23T17:10:00.718Z,99373.43
2019-04-23T17:20:00.710Z,99376.75
2019-04-23T17:30:03.381Z,99374.52
2019-04-23T17:50:38.019Z,99374.11
2019-04-23T18:10:56.556Z,99367.96
2019-04-23T18:21:14.214Z,99376.13
2019-04-23T18:31:13.020Z,99379.06
2019-04-23T18:41:25.268Z,99371.03
2019-04-23T18:51:35.151Z,99376.49
2019-04-23T19:02:02.535Z,99377.95
2019-04-23T19:22:32.710Z,99365.56
2019-04-23T19:32:06.661Z,99368.19
2019-04-23T19:42:17.966Z,99365.85
2019-04-23T19:52:52.717Z,99364.94
2019-04-23T20:03:01.688Z,99360.17
2019-04-23T20:13:01.623Z,99348.48
2019-04-23T20:22:52.261Z,99352.11
2019-04-23T20:43:23.683Z,99335.19
2019-04-23T20:53:34.908Z,99343.11
2019-04-23T21:03:46.577Z,99347.53
2019-04-23T21:23:56.531Z,99336.07
2019-04-23T21:34:12.850Z,99325.41
2019-04-23T21:54:21.197Z,99325.80
2019-04-23T22:14:26.679Z,99312.61
2019-04-23T22:24:27.470Z,99309.64
2019-04-23T22:34:41.327Z,99306.20
2019-04-23T22:54:58.988Z,99302.31
2019-04-23T23:05:10.333Z,99281.30
2019-04-23T23:15:12.196Z,99282.69
2019-04-23T23:25:23.855Z,99277.94
2019-04-23T23:45:29.833Z,99270.45
2019-04-23T23:55:37.937Z,99272.99
